Latest Weather Observations for Albion Park

IDN60801

Issued at 6:23 pm EST Saturday 9 May 2026 (issued every 10 minutes, with the page automatically refreshed every 10 minutes)

About weather observations | Map of weather stations | Latest weather observations for NSW | Other Formats
Station Details ID: 068241 Name: SHELLHARBOUR AIRPORT Lat: -34.56 Lon: 150.79 Height: 8.0 m
Data from the previous 72 hours. | See also: Recent months at Albion Park
Date/Time
EST
Temp
°C
App
Temp
°C
Dew
Point
°C
Rel
Hum
%
Delta-T
°C
Wind Press
QNH
hPa
Press
MSL
hPa
Rain since
9am
mm
Dir  Spd
km/h
Gust
km/h
Spd
kts
Gust
kts
09/06:00pm 14.4 12.9 9.2 71 2.6 WSW 7 9 4 5 1024.9 1024.9 0.0
09/05:30pm 16.4 16.0 9.6 64 3.5 SSW 2 9 1 5 1024.4 1024.4 0.0
09/05:00pm 17.3 15.9 9.5 60 4.1 SSE 7 13 4 7 1024.1 1024.1 0.0
09/04:30pm 18.2 16.3 9.0 55 4.8 SSE 9 15 5 8 1023.7 1023.7 0.0
09/04:00pm 18.8 16.5 9.0 53 5.1 ESE 11 20 6 11 1023.5 1023.5 0.0
09/03:30pm 19.3 16.2 8.9 51 5.4 ESE 15 26 8 14 1023.3 1023.3 0.0
09/03:00pm 20.0 17.1 9.6 51 5.5 SE 15 22 8 12 1023.1 1023.1 0.0
09/02:30pm 20.5 17.7 8.5 46 6.3 SE 13 20 7 11 1023.0 1023.0 0.0
09/02:00pm 21.2 19.1 8.1 43 6.8 ESE 9 15 5 8 1023.0 1023.0 0.0
09/01:30pm 20.9 18.6 7.5 42 6.9 SSE 9 15 5 8 1023.2 1023.2 0.0
09/01:00pm 20.5 18.2 7.5 43 6.6 S 9 17 5 9 1023.4 1023.4 0.0
09/12:30pm 20.3 17.2 7.3 43 6.6 SSW 13 19 7 10 1023.8 1023.8 0.0
09/12:00pm 20.3 17.7 7.7 44 6.5 S 11 17 6 9 1024.2 1024.2 0.0
09/11:30am 19.9 17.5 7.0 43 6.5 SSW 9 15 5 8 1024.6 1024.6 0.0
09/11:00am 20.0 17.7 7.4 44 6.4 SSW 9 17 5 9 1024.8 1024.8 0.0
09/10:30am 19.5 17.4 6.6 43 6.5 SSW 7 13 4 7 1024.9 1024.9 0.0
09/10:00am 18.9 16.4 6.4 44 6.2 SW 9 15 5 8 1024.9 1024.9 0.0
09/09:30am 18.5 15.0 7.3 48 5.7 WSW 15 20 8 11 1024.9 1024.9 0.0
09/09:00am 17.8 14.1 7.8 52 5.0 W 17 20 9 11 1024.9 1024.9 0.0
09/08:30am 16.3 12.9 7.8 57 4.3 W 15 20 8 11 1024.8 1024.8 0.0
09/08:00am 14.5 10.4 7.8 64 3.3 W 19 22 10 12 1024.5 1024.5 0.0
09/07:30am 12.9 9.5 7.6 70 2.6 WSW 15 17 8 9 1024.4 1024.4 0.0
09/07:00am 11.4 8.6 7.1 75 2.0 WSW 11 13 6 7 1024.0 1024.0 0.0
09/06:30am 11.4 9.0 6.9 74 2.1 SW 9 13 5 7 1023.5 1023.5 0.0
09/06:00am 11.7 9.9 7.2 74 2.1 WSW 6 9 3 5 1023.1 1023.1 0.0
09/05:30am 12.7 10.1 7.6 71 2.5 WSW 11 15 6 8 1022.8 1022.8 0.0
09/05:00am 12.9 9.1 7.6 70 2.6 W 17 20 9 11 1022.5 1022.5 0.0
09/04:30am 14.1 11.8 7.6 65 3.2 WSW 9 15 5 8 1022.3 1022.3 0.0
09/04:00am 14.2 10.8 7.7 65 3.2 WSW 15 19 8 10 1021.9 1021.9 0.0
09/03:30am 14.2 10.4 7.7 65 3.2 W 17 22 9 12 1022.0 1022.0 0.0
09/03:00am 14.3 10.9 7.8 65 3.2 WNW 15 20 8 11 1021.9 1021.9 0.0
09/02:30am 14.0 10.6 7.8 66 3.1 WNW 15 22 8 12 1021.8 1021.8 0.0
09/02:00am 14.2 10.4 7.7 65 3.2 WNW 17 26 9 14 1021.7 1021.7 0.0
09/01:30am 14.5 10.4 7.8 64 3.3 W 19 26 10 14 1021.8 1021.8 0.0
09/01:00am 14.6 11.3 7.9 64 3.3 WNW 15 19 8 10 1021.7 1021.7 0.0
09/12:30am 14.8 12.6 7.8 63 3.5 NW 9 13 5 7 1021.7 1021.7 0.0
09/12:00am 14.9 12.7 7.7 62 3.6 W 9 15 5 8 1021.6 1021.6 0.0
 
Date/Time
EST
Temp
°C
App
Temp
°C
Dew
Point
°C
Rel
Hum
%
Delta-T
°C
Wind Press
QNH
hPa
Press
MSL
hPa
Rain since
9am
mm
Dir  Spd
km/h
Gust
km/h
Spd
kts
Gust
kts
08/11:30pm 14.6 11.6 7.9 64 3.3 W 13 19 7 10 1021.6 1021.6 0.0
08/11:00pm 14.6 10.8 7.6 63 3.4 W 17 20 9 11 1021.4 1021.4 0.0
08/10:30pm 14.7 10.9 7.7 63 3.5 W 17 24 9 13 1021.4 1021.4 0.0
08/10:00pm 14.9 10.5 7.5 61 3.6 WSW 20 26 11 14 1021.4 1021.4 0.0
08/09:30pm 15.4 10.3 7.7 60 3.8 W 24 32 13 17 1021.4 1021.4 0.0
08/09:00pm 15.4 9.9 7.4 59 3.9 W 26 35 14 19 1020.9 1020.9 0.0
08/08:30pm 15.4 9.5 7.4 59 4.0 W 28 39 15 21 1020.7 1020.7 0.0
08/08:00pm 15.4 9.5 7.4 59 3.9 W 28 35 15 19 1020.4 1020.4 0.0
08/07:30pm 15.5 9.6 7.3 58 4.1 W 28 35 15 19 1020.1 1020.1 0.0
08/07:00pm 15.6 9.6 7.1 57 4.2 W 28 43 15 23 1019.8 1019.8 0.0
08/06:30pm 15.9 9.9 7.1 56 4.3 WSW 28 39 15 21 1019.4 1019.4 0.0
08/06:00pm 16.1 10.1 7.1 55 4.4 WSW 28 39 15 21 1018.9 1018.9 0.0
08/05:30pm 16.1 10.0 6.8 54 4.6 W 28 39 15 21 1018.2 1018.2 0.0
08/05:00pm 16.9 10.4 6.7 51 5.0 W 30 43 16 23 1017.6 1017.6 0.0
08/04:30pm 17.8 11.7 6.7 48 5.5 W 28 46 15 25 1017.3 1017.3 0.0
08/04:29pm 17.8 11.7 6.7 48 5.5 W 28 46 15 25 1017.2 1017.2 0.0
08/04:00pm 18.4 11.5 6.6 46 5.9 W 32 44 17 24 1016.8 1016.8 0.0
08/03:30pm 19.2 12.4 6.7 44 6.3 W 32 44 17 24 1016.2 1016.2 0.0
08/03:00pm 19.6 12.1 6.4 42 6.6 W 35 46 19 25 1015.7 1015.7 0.0
08/02:30pm 19.7 12.5 6.1 41 6.8 W 33 41 18 22 1015.5 1015.5 0.0
08/02:00pm 19.7 11.9 5.0 38 7.1 W 35 48 19 26 1015.3 1015.3 0.0
08/01:30pm 20.1 11.3 5.4 38 7.2 W 41 50 22 27 1015.2 1015.2 0.0
08/01:01pm 20.1 12.9 5.7 39 7.1 W 33 52 18 28 1015.2 1015.2 0.0
08/01:00pm 20.0 12.4 5.6 39 7.1 WSW 35 52 19 28 1015.2 1015.2 0.0
08/12:30pm 20.0 14.5 6.0 40 7.0 W 24 43 13 23 1015.6 1015.6 0.0
08/12:00pm 19.3 13.8 5.7 41 6.7 W 24 37 13 20 1016.0 1016.0 0.0
08/11:30am 19.0 12.7 5.5 41 6.6 W 28 44 15 24 1016.3 1016.3 0.0
08/11:00am 18.4 11.3 5.6 43 6.2 WNW 32 44 17 24 1016.4 1016.4 0.0
08/10:30am 18.1 12.2 6.0 45 5.9 WNW 26 39 14 21 1016.8 1016.8 0.0
08/10:09am 17.3 10.1 4.9 44 5.9 WNW 32 50 17 27 1016.9 1016.9 0.0
08/10:00am 17.2 10.0 5.2 45 5.7 WNW 32 46 17 25 1017.0 1017.0 0.0
08/09:30am 16.3 9.9 5.3 48 5.3 WNW 28 39 15 21 1017.3 1017.3 0.0
08/09:00am 15.6 9.6 5.5 51 4.8 WNW 26 46 14 25 1017.5 1017.5 0.0
08/08:57am 15.1 8.6 4.5 49 4.9 WNW 28 46 15 25 1017.4 1017.4 0.0
08/08:30am 14.4 8.7 4.7 52 4.5 WNW 24 35 13 19 1017.3 1017.3 0.0
08/08:00am 13.5 7.7 4.6 55 4.1 W 24 35 13 19 1017.2 1017.2 0.0
08/07:30am 12.6 5.2 4.1 56 3.8 W 32 43 17 23 1016.5 1016.5 0.0
08/07:00am 12.4 3.3 3.9 56 3.8 W 41 57 22 31 1016.3 1016.3 0.0
08/06:30am 11.9 3.1 3.4 56 3.8 W 39 54 21 29 1015.9 1015.9 0.0
08/06:00am 11.6 2.8 3.4 57 3.6 WNW 39 48 21 26 1016.2 1016.2 0.0
08/05:30am 11.4 2.9 3.2 57 3.6 W 37 48 20 26 1016.2 1016.2 0.0
08/05:00am 11.2 1.3 2.8 56 3.6 W 44 57 24 31 1016.2 1016.2 0.0
08/04:30am 11.2 2.3 2.8 56 3.6 W 39 48 21 26 1016.4 1016.4 0.0
08/04:00am 10.9 1.5 2.5 56 3.6 W 41 48 22 26 1016.5 1016.5 0.0
08/03:30am 11.2 1.9 2.8 56 3.6 WSW 41 57 22 31 1016.5 1016.5 0.0
08/03:00am 10.9 1.9 2.5 56 3.6 WSW 39 50 21 27 1016.7 1016.7 0.0
08/02:30am 10.4 2.2 2.5 58 3.4 W 35 48 19 26 1017.0 1017.0 0.0
08/02:00am 10.4 1.7 2.3 57 3.4 W 37 44 20 24 1017.2 1017.2 0.0
08/01:30am 10.1 1.7 1.7 56 3.5 W 35 48 19 26 1017.7 1017.7 0.0
08/01:00am 10.0 2.0 1.4 55 3.6 WSW 33 43 18 23 1018.2 1018.2 0.0
08/12:30am 9.9 1.8 1.0 54 3.7 W 33 43 18 23 1018.3 1018.3 0.0
08/12:00am 10.5 1.6 0.5 50 4.1 W 37 48 20 26 1018.4 1018.4 0.0
 
Date/Time
EST
Temp
°C
App
Temp
°C
Dew
Point
°C
Rel
Hum
%
Delta-T
°C
Wind Press
QNH
hPa
Press
MSL
hPa
Rain since
9am
mm
Dir  Spd
km/h
Gust
km/h
Spd
kts
Gust
kts
07/11:30pm 10.7 1.7 0.4 49 4.2 W 37 44 20 24 1018.1 1018.1 0.0
07/11:00pm 10.5 2.3 0.5 50 4.1 WSW 33 43 18 23 1018.1 1018.1 0.0
07/10:30pm 10.6 3.4 0.6 50 4.1 W 28 41 15 22 1018.3 1018.3 0.0
07/10:10pm 10.7 3.5 0.4 49 4.2 WSW 28 46 15 25 1018.4 1018.4 0.0
07/10:00pm 10.7 2.7 0.4 49 4.2 WSW 32 39 17 21 1018.4 1018.4 0.0
07/09:43pm 11.7 3.1 0.2 45 4.7 WSW 35 54 19 29 1018.4 1018.4 0.0
07/09:30pm 10.8 2.8 0.5 49 4.2 WSW 32 44 17 24 1018.3 1018.3 0.0
07/09:00pm 10.8 3.2 0.5 49 4.2 WSW 30 43 16 23 1017.9 1017.9 0.0
07/08:31pm 11.5 4.3 0.6 47 4.5 W 28 52 15 28 1017.9 1017.9 0.0
07/08:30pm 11.3 4.1 0.4 47 4.5 W 28 41 15 22 1017.8 1017.8 0.0
07/08:00pm 11.6 5.1 0.4 46 4.6 W 24 37 13 20 1018.2 1018.2 0.0
07/07:30pm 11.2 5.5 0.3 47 4.5 W 20 43 11 23 1017.8 1017.8 0.0
07/07:00pm 12.1 6.0 0.2 44 4.9 WNW 22 35 12 19 1017.6 1017.6 0.0
07/06:30pm 12.3 4.3 0.1 43 5.0 WNW 32 61 17 33 1017.2 1017.2 0.0
07/06:00pm 12.4 4.7 0.2 43 5.0 W 30 52 16 28 1016.6 1016.6 0.0
07/05:54pm 12.6 5.3 0.0 42 5.2 W 28 52 15 28 1016.4 1016.4 0.0
07/05:30pm 12.5 5.6 0.3 43 5.1 W 26 39 14 21 1016.1 1016.1 0.0
07/05:00pm 13.1 6.6 0.5 42 5.3 W 24 39 13 21 1015.6 1015.6 0.0
07/04:30pm 14.0 6.0 0.3 39 5.8 W 32 46 17 25 1015.2 1015.2 0.0
07/04:00pm 14.4 6.9 1.0 40 5.7 W 30 43 16 23 1014.9 1014.9 0.0
07/03:30pm 14.2 6.0 0.1 38 5.9 W 33 52 18 28 1014.9 1014.9 0.0
07/03:05pm 15.2 6.6 -0.1 35 6.5 W 35 54 19 29 1014.5 1014.5 0.0
07/03:00pm 14.8 5.8 -0.1 36 6.3 W 37 50 20 27 1014.6 1014.6 0.0
07/02:30pm 15.8 7.2 0.0 34 6.7 W 35 48 19 26 1014.2 1014.2 0.0
07/02:00pm 15.9 7.2 -0.3 33 6.8 W 35 44 19 24 1014.0 1014.0 0.0
07/01:30pm 16.0 7.8 -0.7 32 7.0 W 32 54 17 29 1014.0 1014.0 0.0
07/01:05pm 16.0 7.3 -0.7 32 7.0 WSW 35 54 19 29 1014.0 1014.0 0.0
07/01:00pm 15.9 6.4 -0.8 32 7.0 WSW 39 54 21 29 1013.9 1013.9 0.0
07/12:30pm 16.0 6.6 -0.2 33 6.9 W 39 50 21 27 1013.6 1013.6 0.0
07/12:00pm 16.0 5.7 -1.1 31 7.1 W 43 56 23 30 1013.8 1013.8 0.0
07/11:30am 16.0 5.8 -3.0 27 7.6 W 41 56 22 30 1014.0 1014.0 0.0
07/11:18am 16.7 7.4 -1.9 28 7.7 W 37 54 20 29 1014.1 1014.1 0.0
07/11:00am 16.6 7.0 -1.5 29 7.5 WSW 39 59 21 32 1014.2 1014.2 0.0
07/10:42am 16.6 8.8 -3.5 25 8.0 W 28 50 15 27 1014.3 1014.3 0.0
07/10:30am 16.4 9.0 -3.7 25 7.9 W 26 37 14 20 1014.2 1014.2 0.0
07/10:00am 16.1 8.0 -0.6 32 7.0 W 32 52 17 28 1014.4 1014.4 0.0
07/09:35am 15.0 6.7 2.2 42 5.7 WSW 35 54 19 29 1014.4 1014.4 0.0
07/09:30am 15.1 6.1 2.6 43 5.6 W 39 54 21 29 1014.4 1014.4 0.0
07/09:08am 15.6 7.7 4.3 47 5.3 W 35 63 19 34 1014.1 1014.1 0.0
07/09:00am 16.4 10.5 7.3 55 4.5 W 28 37 15 20 1013.9 1013.9 0.0
07/08:40am 16.2 9.9 7.4 56 4.4 W 30 50 16 27 1013.3 1013.3 0.0
07/08:30am 16.6 11.0 7.3 54 4.6 W 26 35 14 19 1013.1 1013.1 0.0
07/08:16am 16.1 11.9 7.3 56 4.4 WNW 19 39 10 21 1012.8 1012.8 0.0
07/08:00am 16.1 13.1 7.6 57 4.2 WNW 13 20 7 11 1012.9 1012.9 0.0
07/07:30am 15.1 8.6 6.7 57 4.1 W 30 44 16 24 1012.5 1012.5 0.0
07/07:00am 14.7 8.1 6.0 56 4.2 W 30 48 16 26 1012.1 1012.1 0.0
07/06:40am 14.6 8.0 6.2 57 4.0 W 30 54 16 29 1011.8 1011.8 0.0
07/06:30am 14.7 8.1 6.0 56 4.2 W 30 44 16 24 1011.8 1011.8 0.0
07/06:20am 14.4 10.3 6.0 57 4.0 WNW 17 43 9 23 1011.7 1011.7 0.0
07/06:00am 14.2 11.5 5.6 56 4.1 ENE 9 20 5 11 1011.6 1011.6 0.0
07/05:30am 13.2 10.9 4.9 57 3.8 E 6 11 3 6 1012.1 1012.1 0.0
07/05:00am 13.7 9.7 4.8 55 4.1 WNW 15 24 8 13 1012.1 1012.1 0.0
07/04:30am 13.7 7.2 4.6 54 4.2 W 28 37 15 20 1012.6 1012.6 0.0
07/04:00am 13.7 5.9 4.8 55 4.1 W 35 48 19 26 1012.1 1012.1 0.0
07/03:30am 13.7 6.5 4.8 55 4.1 W 32 43 17 23 1012.1 1012.1 0.0
07/03:00am 13.5 7.9 5.4 58 3.8 WNW 24 43 13 23 1012.5 1012.5 0.0
07/02:30am 14.2 7.9 5.8 57 4.0 W 28 39 15 21 1013.0 1013.0 0.0
07/02:00am 14.2 7.3 6.6 60 3.7 WSW 32 46 17 25 1013.2 1013.2 0.0
07/01:30am 13.8 8.2 7.1 64 3.3 W 26 37 14 20 1013.4 1013.4 0.0
07/01:00am 14.3 8.3 7.1 62 3.5 W 28 41 15 22 1013.5 1013.5 0.0
07/12:30am 14.1 10.3 7.4 64 3.3 W 17 24 9 13 1013.8 1013.8 0.0
07/12:00am 14.2 10.9 8.2 67 3.0 WSW 15 35 8 19 1014.0 1014.0 0.0
 
Date/Time
EST
Temp
°C
App
Temp
°C
Dew
Point
°C
Rel
Hum
%
Delta-T
°C
Wind Press
QNH
hPa
Press
MSL
hPa
Rain since
9am
mm
Dir  Spd
km/h
Gust
km/h
Spd
kts
Gust
kts
06/11:49pm 15.5 10.6 8.5 63 3.5 WNW 24 50 13 27 1014.0 1014.0 0.0
06/11:44pm 14.3 11.6 8.9 70 2.7 WNW 13 35 7 19 1014.0 1014.0 0.0
06/11:30pm 12.6 11.3 9.2 80 1.7 ESE 6 11 3 6 1014.2 1014.2 0.0
06/11:00pm 10.6 9.8 9.8 95 0.4 SSE 4 7 2 4 1014.5 1014.5 0.0
06/10:30pm 11.0 10.4 10.4 96 0.3 E 4 7 2 4 1014.9 1014.9 0.0
06/10:17pm 11.1 10.9 10.5 96 0.3 NNE 2 7 1 4 1015.1 1015.1 0.0
06/10:07pm 10.5 10.1 9.7 95 0.4 N 2 6 1 3 1015.3 1015.3 0.0
06/10:00pm 10.6 10.6 9.8 95 0.4 CALM 0 0 0 0 1015.4 1015.4 0.0
06/09:30pm 11.3 11.5 10.5 95 0.4 CALM 0 0 0 0 1015.6 1015.6 0.0
06/09:00pm 12.1 12.5 11.3 95 0.4 CALM 0 0 0 0 1015.8 1015.8 0.0
06/08:30pm 11.9 11.0 10.6 92 0.7 W 6 11 3 6 1015.8 1015.8 0.0
06/08:00pm 13.0 12.3 11.9 93 0.6 W 7 9 4 5 1016.1 1016.1 0.0
06/07:30pm 13.5 12.1 12.2 92 0.7 WNW 11 13 6 7 1016.0 1016.0 0.0
06/07:00pm 13.5 12.4 11.9 90 0.9 WNW 9 9 5 5 1016.1 1016.1 0.0
06/06:30pm 14.2 13.6 12.4 89 1.0 WNW 7 9 4 5 1016.0 1016.0 0.0

Other formats

Comma delimited format used in spreadsheet applications
http://www.bom.gov.au/fwo/IDN60801/IDN60801.95748.axf

JavaScript Object Notation format (JSON) in row-major order
http://www.bom.gov.au/fwo/IDN60801/IDN60801.95748.json

Data quality

Most of these data are generated automatically and are frequently updated. Quality checks on data are not normally performed. It is possible for incorrect values to appear. Refer to information at About Latest Weather Observations and please check the disclaimer before using these data.